Time;durP1;ratioP1;P1;durP2;ratioP2;P2;SDS_P1;SDS_P2;PMS_P1;PMS_P2;Temp;Humidity;BMP_temperature;BMP_pressure;BME280_temperature;BME280_humidity;BME280_pressure;Samples;Min_cycle;Max_cycle;Signal;HPM_P1;HPM_P2
2022/03/18 00:00:53;;;;;;;6.43;5.93;;;;;;;;;;5096240;28;20555;-53
2022/03/18 00:03:20;;;;;;;6.35;5.85;;;;;;;;;;5097030;28;20246;-53
2022/03/18 00:05:48;;;;;;;6.47;5.90;;;;;;;;;;5096157;28;20203;-53
2022/03/18 00:08:17;;;;;;;6.47;5.97;;;;;;;;;;5096198;28;20203;-53
2022/03/18 00:10:45;;;;;;;6.50;5.90;;;;;;;;;;5097242;28;20199;-53
2022/03/18 00:13:12;;;;;;;5.80;5.30;;;;;;;;;;5096262;28;20211;-53
2022/03/18 00:15:40;;;;;;;5.80;5.30;;;;;;;;;;5097022;28;20436;-53
2022/03/18 00:18:07;;;;;;;5.85;5.35;;;;;;;;;;5097894;28;20214;-53
2022/03/18 00:20:35;;;;;;;5.80;5.30;;;;;;;;;;5096633;28;20617;-53
2022/03/18 00:23:02;;;;;;;6.20;5.60;;;;;;;;;;5096770;28;20204;-53
2022/03/18 00:25:31;;;;;;;6.00;5.50;;;;;;;;;;5096043;28;20273;-53
2022/03/18 00:27:59;;;;;;;5.90;5.40;;;;;;;;;;5096260;28;20196;-53
2022/03/18 00:30:26;;;;;;;5.43;4.97;;;;;;;;;;5095693;28;20195;-53
2022/03/18 00:32:54;;;;;;;5.75;5.25;;;;;;;;;;5096462;28;20203;-53
2022/03/18 00:35:21;;;;;;;5.68;5.18;;;;;;;;;;5097103;28;20729;-53
2022/03/18 00:37:49;;;;;;;5.22;4.72;;;;;;;;;;5097187;28;20204;-53
2022/03/18 00:40:17;;;;;;;5.25;4.85;;;;;;;;;;5096299;28;20404;-53
2022/03/18 00:42:46;;;;;;;5.43;5.03;;;;;;;;;;5096976;28;20211;-53
2022/03/18 00:45:14;;;;;;;5.72;5.22;;;;;;;;;;5097070;28;20273;-53
2022/03/18 00:53:11;;;;;;;4.88;4.47;;;;;;;;;;5096705;28;20244;-53
2022/03/18 00:55:38;;;;;;;5.05;4.65;;;;;;;;;;5096231;28;20557;-53
2022/03/18 00:58:09;;;;;;;5.25;4.85;;;;;;;;;;5096966;28;20199;-53
2022/03/18 01:00:36;;;;;;;5.07;4.68;;;;;;;;;;5096766;28;20228;-53
2022/03/18 01:03:04;;;;;;;5.00;4.60;;;;;;;;;;5096392;28;20538;-53
2022/03/18 01:05:32;;;;;;;4.93;4.53;;;;;;;;;;5096792;28;20308;-53
2022/03/18 01:07:59;;;;;;;5.25;4.78;;;;;;;;;;5095620;28;20206;-53
2022/03/18 01:10:27;;;;;;;4.82;4.43;;;;;;;;;;5095870;28;20234;-53
2022/03/18 01:12:54;;;;;;;5.28;4.88;;;;;;;;;;5096405;28;20318;-53
2022/03/18 01:15:23;;;;;;;5.13;4.72;;;;;;;;;;5095964;28;20257;-53
2022/03/18 01:17:51;;;;;;;4.65;4.25;;;;;;;;;;5096417;28;20294;-53
2022/03/18 01:20:18;;;;;;;5.35;4.90;;;;;;;;;;5096330;28;20420;-53
2022/03/18 01:22:46;;;;;;;4.55;4.15;;;;;;;;;;5096500;28;20215;-53
2022/03/18 01:25:13;;;;;;;4.70;4.30;;;;;;;;;;5095856;28;20214;-53
2022/03/18 01:27:41;;;;;;;4.80;4.40;;;;;;;;;;5096271;28;20306;-53
2022/03/18 01:30:08;;;;;;;4.75;4.35;;;;;;;;;;5096682;28;20204;-53
2022/03/18 01:32:38;;;;;;;4.63;4.22;;;;;;;;;;5096214;28;20254;-53
2022/03/18 01:35:05;;;;;;;4.75;4.35;;;;;;;;;;5095447;28;20192;-53
2022/03/18 01:37:33;;;;;;;4.38;4.00;;;;;;;;;;5097168;28;20290;-53
2022/03/18 01:40:00;;;;;;;4.45;4.15;;;;;;;;;;5100696;28;20203;-53
2022/03/18 01:42:28;;;;;;;4.53;4.13;;;;;;;;;;5100134;28;20318;-53
2022/03/18 01:44:55;;;;;;;4.10;3.80;;;;;;;;;;5100448;28;20294;-53
2022/03/18 01:47:22;;;;;;;4.47;4.18;;;;;;;;;;5100522;28;20251;-53
2022/03/18 01:49:51;;;;;;;3.85;3.55;;;;;;;;;;5100701;28;20270;-53
2022/03/18 01:52:19;;;;;;;4.43;4.13;;;;;;;;;;5100208;28;20211;-53
2022/03/18 01:54:47;;;;;;;4.35;3.95;;;;;;;;;;5099776;28;20491;-53
2022/03/18 01:57:16;;;;;;;4.00;3.70;;;;;;;;;;5099799;28;20207;-53
2022/03/18 01:59:43;;;;;;;4.25;3.85;;;;;;;;;;5100365;28;20268;-53
2022/03/18 02:02:11;;;;;;;4.28;3.97;;;;;;;;;;5100040;28;20330;-53
2022/03/18 02:04:40;;;;;;;4.10;3.80;;;;;;;;;;5099886;28;20290;-53
2022/03/18 02:07:10;;;;;;;4.30;4.00;;;;;;;;;;5099793;28;20239;-53
2022/03/18 02:09:38;;;;;;;3.97;3.67;;;;;;;;;;5099596;28;20207;-53
2022/03/18 02:12:06;;;;;;;4.05;3.75;;;;;;;;;;5099873;28;20210;-53
2022/03/18 02:14:34;;;;;;;3.90;3.60;;;;;;;;;;5100047;28;20294;-53
2022/03/18 02:17:03;;;;;;;3.90;3.60;;;;;;;;;;5099669;28;20530;-53
2022/03/18 02:19:30;;;;;;;4.22;3.92;;;;;;;;;;5099741;28;20294;-53
2022/03/18 02:21:58;;;;;;;3.95;3.65;;;;;;;;;;5099652;28;20258;-53
2022/03/18 02:24:27;;;;;;;3.80;3.50;;;;;;;;;;5099318;28;20559;-53
2022/03/18 02:26:55;;;;;;;3.88;3.55;;;;;;;;;;5099582;28;20306;-53
2022/03/18 02:29:24;;;;;;;3.67;3.38;;;;;;;;;;5098765;28;20204;-53
2022/03/18 02:31:52;;;;;;;4.35;3.95;;;;;;;;;;5099513;28;20234;-53
2022/03/18 02:34:20;;;;;;;3.70;3.40;;;;;;;;;;5099357;28;20266;-53
2022/03/18 02:36:48;;;;;;;3.75;3.45;;;;;;;;;;5099482;28;20306;-53
2022/03/18 02:39:15;;;;;;;3.65;3.35;;;;;;;;;;5099323;28;20302;-53
2022/03/18 02:41:44;;;;;;;3.50;3.28;;;;;;;;;;5099592;28;20234;-53
2022/03/18 02:44:12;;;;;;;3.88;3.47;;;;;;;;;;5099492;28;20203;-53
2022/03/18 02:46:39;;;;;;;3.78;3.47;;;;;;;;;;5099165;28;20239;-53
2022/03/18 02:49:07;;;;;;;3.53;3.25;;;;;;;;;;5099334;28;20497;-53
2022/03/18 02:51:37;;;;;;;3.80;3.50;;;;;;;;;;5099183;28;20265;-53
2022/03/18 02:54:05;;;;;;;3.70;3.40;;;;;;;;;;5098893;28;20276;-53
2022/03/18 02:56:33;;;;;;;3.60;3.30;;;;;;;;;;5098996;28;20234;-53
2022/03/18 02:59:02;;;;;;;3.75;3.40;;;;;;;;;;5099154;28;20313;-53
2022/03/18 03:01:30;;;;;;;3.60;3.30;;;;;;;;;;5098799;28;20314;-53
2022/03/18 03:03:58;;;;;;;3.58;3.28;;;;;;;;;;5099468;28;20605;-53
2022/03/18 03:09:10;;;;;;;3.40;3.10;;;;;;;;;;5098736;28;20656;-53
2022/03/18 03:11:38;;;;;;;3.20;2.90;;;;;;;;;;5099039;28;20290;-53
2022/03/18 03:14:07;;;;;;;3.70;3.40;;;;;;;;;;5098639;28;20218;-53
2022/03/18 03:16:34;;;;;;;3.78;3.47;;;;;;;;;;5098802;28;20298;-53
2022/03/18 03:19:03;;;;;;;3.60;3.30;;;;;;;;;;5098725;28;20204;-53
2022/03/18 03:21:31;;;;;;;3.40;3.10;;;;;;;;;;5098228;28;20231;-53
2022/03/18 03:23:58;;;;;;;3.70;3.40;;;;;;;;;;5098857;28;20299;-53
2022/03/18 03:26:26;;;;;;;3.40;3.10;;;;;;;;;;5098816;28;20284;-53
2022/03/18 03:28:53;;;;;;;3.38;3.17;;;;;;;;;;5098638;28;20214;-53
2022/03/18 03:31:22;;;;;;;3.58;3.28;;;;;;;;;;5098567;28;20292;-53
2022/03/18 03:33:49;;;;;;;3.10;2.90;;;;;;;;;;5098826;28;20204;-53
2022/03/18 03:36:17;;;;;;;3.33;3.03;;;;;;;;;;5097944;28;20204;-53
2022/03/18 03:38:45;;;;;;;3.20;2.88;;;;;;;;;;5098379;28;20230;-53
2022/03/18 03:41:12;;;;;;;3.35;3.10;;;;;;;;;;5098148;28;20223;-53
2022/03/18 03:43:41;;;;;;;3.22;2.92;;;;;;;;;;5098294;28;20287;-53
2022/03/18 03:46:08;;;;;;;3.13;2.92;;;;;;;;;;5097831;28;20250;-53
2022/03/18 03:48:37;;;;;;;3.85;3.40;;;;;;;;;;5096220;28;20199;-53
2022/03/18 03:51:06;;;;;;;3.53;3.22;;;;;;;;;;5097289;28;20307;-53
2022/03/18 03:53:33;;;;;;;2.80;2.60;;;;;;;;;;5098208;28;20213;-53
2022/03/18 03:56:00;;;;;;;3.13;2.83;;;;;;;;;;5097600;28;20291;-53
2022/03/18 03:58:28;;;;;;;3.45;3.15;;;;;;;;;;5097787;28;20221;-53
2022/03/18 04:00:55;;;;;;;2.88;2.67;;;;;;;;;;5097053;28;20210;-53
2022/03/18 04:03:23;;;;;;;3.40;3.10;;;;;;;;;;5097354;28;20203;-53
2022/03/18 04:05:51;;;;;;;3.20;3.00;;;;;;;;;;5097510;28;20478;-53
2022/03/18 04:08:19;;;;;;;3.17;2.80;;;;;;;;;;5097559;28;20298;-53
2022/03/18 04:10:46;;;;;;;3.20;2.90;;;;;;;;;;5097331;28;20203;-53
2022/03/18 04:13:14;;;;;;;3.20;2.90;;;;;;;;;;5097049;28;20294;-53
2022/03/18 04:15:41;;;;;;;3.03;2.83;;;;;;;;;;5097026;28;20485;-53
2022/03/18 04:18:08;;;;;;;2.90;2.70;;;;;;;;;;5097457;28;20203;-53
2022/03/18 04:20:36;;;;;;;3.25;2.95;;;;;;;;;;5097487;28;20217;-53
2022/03/18 04:23:05;;;;;;;3.10;2.90;;;;;;;;;;5097075;28;20484;-53
2022/03/18 04:25:32;;;;;;;2.67;2.47;;;;;;;;;;5097585;28;20204;-53
2022/03/18 04:28:00;;;;;;;2.80;2.60;;;;;;;;;;5097309;28;20309;-53
2022/03/18 04:30:27;;;;;;;2.55;2.30;;;;;;;;;;5096915;28;20242;-53
2022/03/18 04:32:55;;;;;;;2.78;2.58;;;;;;;;;;5097202;28;20290;-53
2022/03/18 04:35:23;;;;;;;2.75;2.55;;;;;;;;;;5096887;28;20307;-53
2022/03/18 04:37:50;;;;;;;2.78;2.58;;;;;;;;;;5096552;28;20583;-53
2022/03/18 04:40:19;;;;;;;2.33;2.10;;;;;;;;;;5096682;28;20218;-53
2022/03/18 04:42:48;;;;;;;2.72;2.53;;;;;;;;;;5095538;28;20705;-53
2022/03/18 04:45:16;;;;;;;2.70;2.50;;;;;;;;;;5096999;28;20651;-53
2022/03/18 04:47:43;;;;;;;2.70;2.50;;;;;;;;;;5096131;28;20228;-53
2022/03/18 04:50:11;;;;;;;2.72;2.53;;;;;;;;;;5096923;28;20210;-53
2022/03/18 04:52:39;;;;;;;2.78;2.58;;;;;;;;;;5096567;28;20318;-53
2022/03/18 04:55:07;;;;;;;3.00;2.80;;;;;;;;;;5096490;28;20338;-53
2022/03/18 04:57:36;;;;;;;2.70;2.50;;;;;;;;;;5096385;28;20303;-53
2022/03/18 05:00:05;;;;;;;2.50;2.30;;;;;;;;;;5096749;28;20310;-53
2022/03/18 05:02:36;;;;;;;2.55;2.35;;;;;;;;;;5096458;28;20227;-53
2022/03/18 05:05:03;;;;;;;2.45;2.25;;;;;;;;;;5096320;28;20271;-53
2022/03/18 05:07:30;;;;;;;2.30;2.10;;;;;;;;;;5096367;28;20314;-53
2022/03/18 05:09:58;;;;;;;2.70;2.50;;;;;;;;;;5096112;28;20195;-53
2022/03/18 05:12:27;;;;;;;2.35;2.17;;;;;;;;;;5095641;28;20452;-53
2022/03/18 05:14:57;;;;;;;2.67;2.47;;;;;;;;;;5096343;28;20219;-53
2022/03/18 05:17:24;;;;;;;2.35;2.15;;;;;;;;;;5096404;28;20204;-53
2022/03/18 05:19:52;;;;;;;2.40;2.20;;;;;;;;;;5096373;28;20204;-53
2022/03/18 05:22:19;;;;;;;2.40;2.20;;;;;;;;;;5096177;28;20326;-53
2022/03/18 05:24:46;;;;;;;2.40;2.20;;;;;;;;;;5096176;28;20229;-53
2022/03/18 05:27:14;;;;;;;2.38;2.17;;;;;;;;;;5096193;28;20302;-53
2022/03/18 05:29:42;;;;;;;2.45;2.25;;;;;;;;;;5096638;28;20521;-53
2022/03/18 05:32:11;;;;;;;2.25;2.05;;;;;;;;;;5095380;28;20813;-53
2022/03/18 05:34:38;;;;;;;2.20;2.00;;;;;;;;;;5096023;28;20306;-53
2022/03/18 05:37:06;;;;;;;2.08;1.90;;;;;;;;;;5095510;28;20199;-53
2022/03/18 05:39:34;;;;;;;2.17;2.08;;;;;;;;;;5095022;28;20207;-53
2022/03/18 05:42:02;;;;;;;2.25;2.05;;;;;;;;;;5096010;28;20281;-53
2022/03/18 05:44:29;;;;;;;2.60;2.10;;;;;;;;;;5095860;28;20203;-53
2022/03/18 05:46:56;;;;;;;2.10;1.92;;;;;;;;;;5095792;28;20239;-53
2022/03/18 05:49:26;;;;;;;2.20;2.00;;;;;;;;;;5096296;28;20287;-53
2022/03/18 05:51:53;;;;;;;2.20;2.00;;;;;;;;;;5095359;28;20208;-53
2022/03/18 05:54:21;;;;;;;2.03;1.92;;;;;;;;;;5095162;28;20306;-53
2022/03/18 05:56:53;;;;;;;2.20;2.00;;;;;;;;;;5095520;28;20306;-53
2022/03/18 05:59:21;;;;;;;2.53;2.05;;;;;;;;;;5095263;28;20226;-53
2022/03/18 06:01:49;;;;;;;2.25;2.05;;;;;;;;;;5094600;28;20663;-53
2022/03/18 06:04:16;;;;;;;2.20;2.00;;;;;;;;;;5094154;28;20314;-53
2022/03/18 06:06:47;;;;;;;2.10;1.90;;;;;;;;;;5093838;28;20203;-53
2022/03/18 06:12:00;;;;;;;2.00;1.90;;;;;;;;;;5093930;28;20202;-53
2022/03/18 06:14:28;;;;;;;1.80;1.70;;;;;;;;;;5094265;28;20563;-53
2022/03/18 06:16:56;;;;;;;2.08;1.90;;;;;;;;;;5093895;28;20307;-53
2022/03/18 06:19:24;;;;;;;2.28;2.00;;;;;;;;;;5094068;28;20204;-53
2022/03/18 06:21:54;;;;;;;1.60;1.50;;;;;;;;;;5094242;28;20297;-53
2022/03/18 06:24:22;;;;;;;2.00;1.90;;;;;;;;;;5095944;28;20303;-53
2022/03/18 06:26:49;;;;;;;1.80;1.70;;;;;;;;;;5097048;28;20196;-53
2022/03/18 06:29:19;;;;;;;2.28;2.10;;;;;;;;;;5097380;28;20215;-53
2022/03/18 06:31:49;;;;;;;1.83;1.73;;;;;;;;;;5097726;28;20243;-53
2022/03/18 06:34:18;;;;;;;2.08;1.77;;;;;;;;;;5094286;28;20202;-53
2022/03/18 06:36:46;;;;;;;1.80;1.70;;;;;;;;;;5096798;28;20200;-53
2022/03/18 06:39:15;;;;;;;2.03;1.90;;;;;;;;;;5096705;28;20203;-53
2022/03/18 06:41:44;;;;;;;1.80;1.70;;;;;;;;;;5097445;28;20200;-53
2022/03/18 06:44:14;;;;;;;2.25;1.70;;;;;;;;;;5097478;28;20575;-53
2022/03/18 06:46:42;;;;;;;2.00;1.90;;;;;;;;;;5092668;28;20228;-53
2022/03/18 06:49:13;;;;;;;1.80;1.70;;;;;;;;;;5076363;28;20208;-53
2022/03/18 06:51:40;;;;;;;1.67;1.58;;;;;;;;;;5075496;28;20270;-53
2022/03/18 06:54:07;;;;;;;5.40;1.80;;;;;;;;;;5075326;28;20472;-53
2022/03/18 06:56:38;;;;;;;1.92;1.60;;;;;;;;;;5075152;28;20437;-53
2022/03/18 06:59:05;;;;;;;2.08;1.70;;;;;;;;;;5076144;28;20204;-53
2022/03/18 07:01:33;;;;;;;1.98;1.70;;;;;;;;;;5094141;28;20616;-53
2022/03/18 07:04:01;;;;;;;1.98;1.77;;;;;;;;;;5095528;28;20235;-53
2022/03/18 07:06:28;;;;;;;1.70;1.60;;;;;;;;;;5095486;28;20265;-53
2022/03/18 07:08:55;;;;;;;1.95;1.75;;;;;;;;;;5095431;28;20208;-53
2022/03/18 07:11:23;;;;;;;1.58;1.48;;;;;;;;;;5095823;28;20212;-53
2022/03/18 07:13:53;;;;;;;1.60;1.50;;;;;;;;;;5096933;28;20307;-53
2022/03/18 07:19:06;;;;;;;1.75;1.65;;;;;;;;;;5097183;28;20215;-53
2022/03/18 07:21:34;;;;;;;1.65;1.55;;;;;;;;;;5096755;28;20206;-53
2022/03/18 07:24:02;;;;;;;1.63;1.52;;;;;;;;;;5094938;28;20513;-53
2022/03/18 07:26:29;;;;;;;1.63;1.42;;;;;;;;;;5093801;28;20210;-53
2022/03/18 07:28:59;;;;;;;1.63;1.52;;;;;;;;;;5095224;28;20265;-53
2022/03/18 07:31:27;;;;;;;1.65;1.55;;;;;;;;;;5092881;28;20505;-53
2022/03/18 07:33:54;;;;;;;1.65;1.55;;;;;;;;;;5093967;28;20207;-53
2022/03/18 07:36:22;;;;;;;1.60;1.25;;;;;;;;;;5093862;28;20207;-53
2022/03/18 07:38:49;;;;;;;1.77;1.67;;;;;;;;;;5094105;28;20214;-53
2022/03/18 07:41:17;;;;;;;1.80;1.70;;;;;;;;;;5093905;28;20237;-53
2022/03/18 07:43:44;;;;;;;1.60;1.50;;;;;;;;;;5094490;28;20227;-53
2022/03/18 07:46:13;;;;;;;1.95;1.52;;;;;;;;;;5092556;28;20235;-53
2022/03/18 07:48:44;;;;;;;1.52;1.40;;;;;;;;;;5094257;28;20559;-53
2022/03/18 07:51:11;;;;;;;1.65;1.55;;;;;;;;;;5093258;28;20311;-53
2022/03/18 07:53:39;;;;;;;1.63;1.52;;;;;;;;;;5093617;28;20192;-53
2022/03/18 07:56:07;;;;;;;1.60;1.50;;;;;;;;;;5073638;28;20192;-53
2022/03/18 07:58:34;;;;;;;1.55;1.45;;;;;;;;;;5074958;28;20204;-53
2022/03/18 08:01:01;;;;;;;1.70;1.50;;;;;;;;;;5075035;28;20196;-53
2022/03/18 08:03:30;;;;;;;2.47;1.30;;;;;;;;;;5075996;28;20238;-53
2022/03/18 08:05:58;;;;;;;1.70;1.60;;;;;;;;;;5074615;28;20204;-53
2022/03/18 08:08:25;;;;;;;1.70;1.55;;;;;;;;;;5074218;28;20201;-53
2022/03/18 08:10:53;;;;;;;1.45;1.35;;;;;;;;;;5074538;28;20666;-53
2022/03/18 08:13:21;;;;;;;2.13;1.65;;;;;;;;;;5074483;28;20193;-53
2022/03/18 08:15:48;;;;;;;1.67;1.55;;;;;;;;;;5074313;28;20204;-53
2022/03/18 08:18:16;;;;;;;1.40;1.30;;;;;;;;;;5072634;28;20413;-53
2022/03/18 08:20:45;;;;;;;1.52;1.42;;;;;;;;;;5079126;28;20201;-53
2022/03/18 08:23:13;;;;;;;2.47;1.60;;;;;;;;;;5091959;28;20491;-53
2022/03/18 08:25:41;;;;;;;1.73;1.33;;;;;;;;;;5094782;28;20203;-53
2022/03/18 08:28:08;;;;;;;2.25;1.75;;;;;;;;;;5093640;28;20290;-53
2022/03/18 08:30:36;;;;;;;2.00;1.63;;;;;;;;;;5093018;28;20261;-53
2022/03/18 08:33:04;;;;;;;1.60;1.50;;;;;;;;;;5092782;28;20200;-53
2022/03/18 08:35:31;;;;;;;1.52;1.40;;;;;;;;;;5093643;28;20388;-53
2022/03/18 08:38:01;;;;;;;1.77;1.60;;;;;;;;;;5093645;28;20203;-53
2022/03/18 08:40:30;;;;;;;1.50;1.40;;;;;;;;;;5093899;28;20302;-53
2022/03/18 08:42:58;;;;;;;1.55;1.38;;;;;;;;;;5093657;28;20318;-53
2022/03/18 08:45:26;;;;;;;1.70;1.52;;;;;;;;;;5093374;28;20210;-53
2022/03/18 08:47:54;;;;;;;1.70;1.60;;;;;;;;;;5093831;28;20570;-53
2022/03/18 08:50:22;;;;;;;1.55;1.45;;;;;;;;;;5093742;28;20204;-53
2022/03/18 08:52:50;;;;;;;2.17;1.50;;;;;;;;;;5094056;28;20470;-53
2022/03/18 08:55:19;;;;;;;1.50;1.40;;;;;;;;;;5092697;28;20218;-53
2022/03/18 08:57:47;;;;;;;2.65;1.50;;;;;;;;;;5092120;28;20203;-53
2022/03/18 09:00:16;;;;;;;1.60;1.50;;;;;;;;;;5094157;28;20234;-53
2022/03/18 09:02:44;;;;;;;1.83;1.73;;;;;;;;;;5092093;28;20214;-53
2022/03/18 09:05:12;;;;;;;1.40;1.30;;;;;;;;;;5093286;28;20451;-53
2022/03/18 09:07:40;;;;;;;1.73;1.30;;;;;;;;;;5092863;28;20247;-53
2022/03/18 09:10:09;;;;;;;1.60;1.50;;;;;;;;;;5092368;28;20419;-53
2022/03/18 09:12:44;;;;;;;1.92;1.63;;;;;;;;;;5092090;28;20206;-53
2022/03/18 09:15:12;;;;;;;1.70;1.60;;;;;;;;;;5091988;28;20204;-53
2022/03/18 09:17:39;;;;;;;1.58;1.30;;;;;;;;;;5093095;28;20215;-53
2022/03/18 09:20:07;;;;;;;2.75;1.63;;;;;;;;;;5092819;28;20302;-53
2022/03/18 09:22:35;;;;;;;1.40;1.20;;;;;;;;;;5092864;28;20358;-53
2022/03/18 09:25:02;;;;;;;1.50;1.40;;;;;;;;;;5093360;28;20453;-53
2022/03/18 09:27:30;;;;;;;1.65;1.40;;;;;;;;;;5092381;28;20210;-53
2022/03/18 09:30:00;;;;;;;1.52;1.42;;;;;;;;;;5092479;28;20208;-53
2022/03/18 09:32:28;;;;;;;1.60;1.40;;;;;;;;;;5093087;28;20231;-53
2022/03/18 09:34:55;;;;;;;1.25;1.15;;;;;;;;;;5092829;28;20213;-53
2022/03/18 09:37:23;;;;;;;1.40;1.30;;;;;;;;;;5092248;28;20200;-53
2022/03/18 09:39:50;;;;;;;1.38;1.27;;;;;;;;;;5091650;28;20207;-53
2022/03/18 09:42:18;;;;;;;1.50;1.40;;;;;;;;;;5091239;28;20657;-53
2022/03/18 09:44:45;;;;;;;1.55;1.35;;;;;;;;;;5089393;28;20223;-53
2022/03/18 09:47:14;;;;;;;1.63;1.40;;;;;;;;;;5092507;28;20253;-53
2022/03/18 09:49:45;;;;;;;1.40;1.30;;;;;;;;;;5093737;28;20203;-53
2022/03/18 09:52:14;;;;;;;1.42;1.33;;;;;;;;;;5092665;28;20212;-53
2022/03/18 09:54:41;;;;;;;1.75;1.23;;;;;;;;;;5092462;28;20200;-53
2022/03/18 09:57:09;;;;;;;2.22;1.40;;;;;;;;;;5091309;28;20579;-53
2022/03/18 09:59:37;;;;;;;1.40;1.30;;;;;;;;;;5095885;28;20191;-53
2022/03/18 10:02:23;;;;;;;1.42;1.17;;;;;;;;;;5096469;28;20285;-53
2022/03/18 10:04:55;;;;;;;1.38;1.27;;;;;;;;;;5092001;28;20306;-53
2022/03/18 10:07:23;;;;;;;1.30;1.20;;;;;;;;;;5077474;28;20658;-53
2022/03/18 10:09:50;;;;;;;1.35;1.25;;;;;;;;;;5077553;28;20296;-53
2022/03/18 10:12:29;;;;;;;1.10;1.00;;;;;;;;;;5076089;28;20598;-53
2022/03/18 10:15:07;;;;;;;1.27;1.17;;;;;;;;;;5076442;28;20460;-53
2022/03/18 10:17:41;;;;;;;1.02;1.02;;;;;;;;;;5074083;28;20211;-53
2022/03/18 10:20:23;;;;;;;1.98;1.05;;;;;;;;;;5075146;28;20495;-53
2022/03/18 10:22:51;;;;;;;1.65;1.55;;;;;;;;;;5074937;28;20282;-53
2022/03/18 10:25:33;;;;;;;1.35;1.10;;;;;;;;;;5075156;28;20234;-53
2022/03/18 10:28:01;;;;;;;1.35;1.08;;;;;;;;;;5094320;28;20196;-53
2022/03/18 10:30:29;;;;;;;1.45;1.25;;;;;;;;;;5095036;28;20211;-53
2022/03/18 10:32:57;;;;;;;1.63;1.30;;;;;;;;;;5094392;28;20510;-53
2022/03/18 10:38:28;;;;;;;1.52;1.10;;;;;;;;;;5094110;28;20272;-53
2022/03/18 10:40:56;;;;;;;1.40;1.23;;;;;;;;;;5094620;28;20298;-53
2022/03/18 10:43:24;;;;;;;1.30;1.20;;;;;;;;;;5095132;28;20334;-53
2022/03/18 10:46:04;;;;;;;1.73;1.00;;;;;;;;;;5093347;28;20614;-53
2022/03/18 10:48:31;;;;;;;1.25;1.10;;;;;;;;;;5094719;28;20510;-53
2022/03/18 10:51:10;;;;;;;1.33;1.13;;;;;;;;;;5095006;28;20226;-53
2022/03/18 10:53:37;;;;;;;1.20;1.10;;;;;;;;;;5095335;28;20470;-53
2022/03/18 10:56:05;;;;;;;1.90;1.40;;;;;;;;;;5095949;28;20204;-53
2022/03/18 10:58:33;;;;;;;1.95;1.33;;;;;;;;;;5095507;28;20202;-53
2022/03/18 11:01:04;;;;;;;0.90;0.82;;;;;;;;;;5096184;28;20215;-53
2022/03/18 11:03:33;;;;;;;1.35;1.25;;;;;;;;;;5094883;28;20216;-53
2022/03/18 11:06:03;;;;;;;1.38;1.00;;;;;;;;;;5095285;28;20290;-53
2022/03/18 11:08:36;;;;;;;1.48;1.20;;;;;;;;;;5095525;28;20610;-53
2022/03/18 11:11:11;;;;;;;3.38;1.17;;;;;;;;;;5094412;28;20214;-53
2022/03/18 11:13:49;;;;;;;2.13;1.10;;;;;;;;;;5095781;28;20382;-53
2022/03/18 11:16:18;;;;;;;1.30;1.20;;;;;;;;;;5094264;28;20238;-53
2022/03/18 11:18:46;;;;;;;1.30;1.20;;;;;;;;;;5095508;28;20295;-53
2022/03/18 11:21:14;;;;;;;1.20;1.10;;;;;;;;;;5095754;28;20282;-53
2022/03/18 11:23:47;;;;;;;1.30;1.20;;;;;;;;;;5096748;28;20226;-53
2022/03/18 11:26:17;;;;;;;1.67;1.20;;;;;;;;;;5097129;28;20734;-53
2022/03/18 11:28:46;;;;;;;2.03;1.20;;;;;;;;;;5095960;28;20361;-53
2022/03/18 11:31:18;;;;;;;1.40;1.30;;;;;;;;;;5093561;28;20469;-53
2022/03/18 11:34:08;;;;;;;1.10;1.00;;;;;;;;;;5093282;28;20294;-53
2022/03/18 11:36:36;;;;;;;1.20;1.10;;;;;;;;;;5092840;28;20218;-53
2022/03/18 11:39:06;;;;;;;1.50;1.40;;;;;;;;;;5092903;28;20682;-53
2022/03/18 11:41:53;;;;;;;1.23;1.13;;;;;;;;;;5092340;28;20348;-53
2022/03/18 11:44:40;;;;;;;1.38;1.20;;;;;;;;;;5092376;28;20220;-53
2022/03/18 11:47:28;;;;;;;1.00;1.00;;;;;;;;;;5092632;28;20235;-53
2022/03/18 11:49:56;;;;;;;1.45;1.20;;;;;;;;;;5092577;28;20207;-53
2022/03/18 11:52:24;;;;;;;1.45;1.35;;;;;;;;;;5093259;28;20206;-53
2022/03/18 11:54:55;;;;;;;2.17;1.20;;;;;;;;;;5093658;28;20222;-53
2022/03/18 11:57:33;;;;;;;1.42;1.27;;;;;;;;;;5095071;28;20555;-53
2022/03/18 12:00:05;;;;;;;1.52;1.42;;;;;;;;;;5094049;28;20203;-53
2022/03/18 12:02:33;;;;;;;2.33;1.35;;;;;;;;;;5091802;28;20211;-53
2022/03/18 12:05:00;;;;;;;1.10;1.00;;;;;;;;;;5091625;28;20314;-53
2022/03/18 12:07:30;;;;;;;1.65;1.25;;;;;;;;;;5092565;28;20298;-53
2022/03/18 12:10:00;;;;;;;1.40;1.30;;;;;;;;;;5093211;28;20195;-53
2022/03/18 12:12:29;;;;;;;1.98;1.63;;;;;;;;;;5094715;28;20536;-53
2022/03/18 12:14:57;;;;;;;1.30;1.20;;;;;;;;;;5093560;28;20286;-53
2022/03/18 12:17:25;;;;;;;2.45;2.25;;;;;;;;;;5091729;28;20200;-53
2022/03/18 12:19:54;;;;;;;4.00;3.70;;;;;;;;;;5093001;28;20319;-53
2022/03/18 12:22:22;;;;;;;4.75;4.35;;;;;;;;;;5092807;28;20214;-53
2022/03/18 12:24:50;;;;;;;5.53;4.55;;;;;;;;;;5092393;28;20226;-53
2022/03/18 12:27:19;;;;;;;5.05;4.65;;;;;;;;;;5093020;28;20200;-53
2022/03/18 12:29:47;;;;;;;5.10;4.70;;;;;;;;;;5092920;28;20199;-53
2022/03/18 12:32:15;;;;;;;5.95;5.45;;;;;;;;;;5091738;28;20286;-53
2022/03/18 12:34:50;;;;;;;5.68;5.18;;;;;;;;;;5092108;28;20473;-53
2022/03/18 12:37:20;;;;;;;6.32;5.78;;;;;;;;;;5092795;28;20246;-53
2022/03/18 12:39:48;;;;;;;6.43;5.82;;;;;;;;;;5092178;28;20210;-53
2022/03/18 12:42:16;;;;;;;6.10;5.60;;;;;;;;;;5091527;28;20211;-53
2022/03/18 12:44:48;;;;;;;6.22;5.72;;;;;;;;;;5090463;28;20223;-53
2022/03/18 12:47:17;;;;;;;5.97;5.47;;;;;;;;;;5091408;28;20261;-53
2022/03/18 12:49:45;;;;;;;6.55;6.05;;;;;;;;;;5091359;28;20195;-53
2022/03/18 12:52:14;;;;;;;6.55;6.05;;;;;;;;;;5092129;28;20269;-53
2022/03/18 12:55:02;;;;;;;6.82;6.22;;;;;;;;;;5092288;28;20207;-53
2022/03/18 12:57:30;;;;;;;6.15;5.55;;;;;;;;;;5091426;28;20204;-53
2022/03/18 13:00:00;;;;;;;6.80;6.20;;;;;;;;;;5090862;28;20298;-53
2022/03/18 13:02:27;;;;;;;6.32;5.82;;;;;;;;;;5092094;28;20204;-53
2022/03/18 13:04:57;;;;;;;6.93;6.32;;;;;;;;;;5092223;28;20266;-53
2022/03/18 13:07:26;;;;;;;6.72;6.03;;;;;;;;;;5090964;28;20291;-53
2022/03/18 13:09:54;;;;;;;6.75;6.15;;;;;;;;;;5091538;28;20203;-53
2022/03/18 13:12:25;;;;;;;7.00;6.35;;;;;;;;;;5091042;28;20677;-53
2022/03/18 13:14:56;;;;;;;6.68;6.07;;;;;;;;;;5091635;28;20199;-53
2022/03/18 13:17:27;;;;;;;6.72;6.07;;;;;;;;;;5091672;28;20617;-53
2022/03/18 13:19:56;;;;;;;7.22;6.63;;;;;;;;;;5091929;28;20294;-53
2022/03/18 13:22:23;;;;;;;7.05;6.40;;;;;;;;;;5092636;28;20304;-53
2022/03/18 13:24:52;;;;;;;7.05;6.45;;;;;;;;;;5090786;28;20511;-53
2022/03/18 13:27:20;;;;;;;6.25;5.72;;;;;;;;;;5091023;28;20204;-53
2022/03/18 13:32:53;;;;;;;6.93;6.32;;;;;;;;;;5092036;28;20210;-53
2022/03/18 13:35:22;;;;;;;6.93;6.22;;;;;;;;;;5092802;28;20328;-53
2022/03/18 13:38:06;;;;;;;6.47;5.97;;;;;;;;;;5091941;28;20500;-53
2022/03/18 13:40:34;;;;;;;6.90;6.28;;;;;;;;;;5070272;28;20361;-53
2022/03/18 13:43:03;;;;;;;6.75;6.15;;;;;;;;;;5070077;28;20490;-53
2022/03/18 13:45:31;;;;;;;6.53;5.93;;;;;;;;;;5069054;28;20224;-53
2022/03/18 13:48:00;;;;;;;5.88;5.47;;;;;;;;;;5068791;28;20235;-53
2022/03/18 13:50:42;;;;;;;5.60;5.20;;;;;;;;;;5069495;28;20200;-53
2022/03/18 13:53:19;;;;;;;6.20;5.70;;;;;;;;;;5069908;28;20223;-53
2022/03/18 13:55:47;;;;;;;6.10;5.50;;;;;;;;;;5068889;28;20210;-53
2022/03/18 13:58:25;;;;;;;6.20;5.60;;;;;;;;;;5069662;28;20219;-53
2022/03/18 14:00:52;;;;;;;6.13;5.60;;;;;;;;;;5069923;28;20431;-53
2022/03/18 14:03:30;;;;;;;6.32;5.72;;;;;;;;;;5070900;28;20235;-53
2022/03/18 14:06:00;;;;;;;6.13;5.53;;;;;;;;;;5074733;28;20456;-53
2022/03/18 14:08:28;;;;;;;5.65;5.15;;;;;;;;;;5089768;28;20274;-53
2022/03/18 14:10:59;;;;;;;6.25;5.75;;;;;;;;;;5088852;28;20617;-53
2022/03/18 14:13:27;;;;;;;5.93;5.43;;;;;;;;;;5090361;28;20315;-53
2022/03/18 14:15:55;;;;;;;5.90;5.40;;;;;;;;;;5089136;28;20294;-53
2022/03/18 14:18:24;;;;;;;6.03;5.43;;;;;;;;;;5089824;28;20311;-53
2022/03/18 14:20:59;;;;;;;5.60;5.10;;;;;;;;;;5090043;28;20195;-53
2022/03/18 14:23:28;;;;;;;5.72;5.22;;;;;;;;;;5090050;28;20559;-53
2022/03/18 14:25:56;;;;;;;5.38;4.95;;;;;;;;;;5088738;28;20357;-53
2022/03/18 14:28:25;;;;;;;5.93;5.32;;;;;;;;;;5089988;28;20315;-53
2022/03/18 14:30:52;;;;;;;5.22;4.82;;;;;;;;;;5089474;28;20596;-53
2022/03/18 14:33:22;;;;;;;6.57;6.03;;;;;;;;;;5090250;28;20310;-53
2022/03/18 14:35:51;;;;;;;7.40;6.80;;;;;;;;;;5088607;28;20603;-53
2022/03/18 14:38:18;;;;;;;6.25;5.68;;;;;;;;;;5090113;28;20216;-53
2022/03/18 14:40:47;;;;;;;6.50;5.90;;;;;;;;;;5089663;28;20196;-53
2022/03/18 14:43:15;;;;;;;6.70;6.00;;;;;;;;;;5090387;28;20215;-53
2022/03/18 14:45:42;;;;;;;6.22;5.72;;;;;;;;;;5092332;28;20233;-53
2022/03/18 14:48:10;;;;;;;6.68;6.07;;;;;;;;;;5094435;28;20423;-53
2022/03/18 14:50:40;;;;;;;6.07;5.57;;;;;;;;;;5093481;28;20251;-53
2022/03/18 14:53:09;;;;;;;6.28;5.60;;;;;;;;;;5093636;28;20379;-53
2022/03/18 14:58:22;;;;;;;6.63;5.97;;;;;;;;;;5092337;28;20597;-53
2022/03/18 15:00:51;;;;;;;8.20;7.40;;;;;;;;;;5093014;28;20282;-53
2022/03/18 15:03:19;;;;;;;8.90;8.00;;;;;;;;;;5092201;28;20233;-53
2022/03/18 15:05:46;;;;;;;7.75;7.15;;;;;;;;;;5090931;28;20228;-53
2022/03/18 15:08:17;;;;;;;7.70;7.00;;;;;;;;;;5093390;28;20563;-53
2022/03/18 15:10:45;;;;;;;8.13;7.18;;;;;;;;;;5093936;28;20298;-53
2022/03/18 15:13:12;;;;;;;7.43;6.82;;;;;;;;;;5092129;28;20681;-53
2022/03/18 15:15:40;;;;;;;7.45;6.85;;;;;;;;;;5092971;28;20462;-53